MDST/STI METAR and TAF weather

Enter ICAO airport designator
Station Type Date Time Source
MDST METAR 2023/02/04 02:00 UTC NOAA

MDST 040200Z VRB03KT 090V150 9999 SCT016 23/22 Q1019


Station Type Date Time Source
MDST Decoded METAR 2023/02/04 02:00 UTC NOAA

Santiago, Dominican Republic (MDST) 19-27N 070-42W
Feb 03, 2023 - 09:00 PM EST / 2023.02.04 0200 UTC
Wind: Variable at 3 MPH (3 KT) (direction variable):0
Visibility: greater than 7 mile(s):0
Sky conditions: partly cloudy
Temperature: 73 F (23 C)
Dew Point: 71 F (22 C)
Relative Humidity: 94%
Pressure (altimeter): 30.09 in. Hg (1019 hPa)
ob: MDST 040200Z VRB03KT 090V150 9999 SCT016 23/22 Q1019
cycle: 2

Station Type Date Time Source
MDST TAF 2023/02/03 18:34 UTC NOAA

TAF MDST 031600Z 0318/0418 10010KT 9999 SCT020 PROB30 0318/0400 8000-SHRA BKN016
BECMG 0401/0403 VRB03KT

Example: see airport list